Time;durP1;ratioP1;P1;durP2;ratioP2;P2;SDS_P1;SDS_P2;PMS_P1;PMS_P2;Temp;Humidity;BMP_temperature;BMP_pressure;BME280_temperature;BME280_humidity;BME280_pressure;Samples;Min_cycle;Max_cycle;Signal;HPM_P1;HPM_P2
2023/05/18 00:00:05;;;;;;;11.70;4.50;;;;;;;10.02;100.00;101327.98;105571;1260;75402;-51
2023/05/18 00:02:32;;;;;;;6.60;4.00;;;;;;;10.01;100.00;101324.20;105662;1260;67663;-51
2023/05/18 00:05:00;;;;;;;7.80;3.80;;;;;;;10.00;100.00;101320.92;105623;1257;74768;-51
2023/05/18 00:07:32;;;;;;;9.10;4.40;;;;;;;9.98;100.00;101319.54;105648;1261;63107;-51
2023/05/18 00:10:00;;;;;;;9.00;4.20;;;;;;;9.96;100.00;101318.33;105579;1262;62354;-50
2023/05/18 00:12:27;;;;;;;10.90;4.80;;;;;;;9.94;100.00;101309.71;105665;1257;76849;-50
2023/05/18 00:14:54;;;;;;;13.20;4.50;;;;;;;9.93;100.00;101304.89;105598;1257;66696;-50
2023/05/18 00:17:22;;;;;;;14.30;4.80;;;;;;;9.95;100.00;101301.95;105633;1257;74180;-50
2023/05/18 00:19:49;;;;;;;10.60;4.40;;;;;;;9.94;100.00;101293.84;105634;1257;63058;-50
2023/05/18 00:22:19;;;;;;;8.20;4.20;;;;;;;9.92;100.00;101293.16;105685;1261;61804;-50
2023/05/18 00:24:46;;;;;;;11.10;4.80;;;;;;;9.90;100.00;101285.23;105592;1262;76426;-50
2023/05/18 00:27:14;;;;;;;5.70;4.20;;;;;;;9.87;100.00;101280.08;105640;1257;66271;-50
2023/05/18 00:29:41;;;;;;;6.40;4.20;;;;;;;9.85;100.00;101279.56;105578;1258;75197;-50
2023/05/18 00:32:08;;;;;;;7.10;3.60;;;;;;;9.84;100.00;101273.88;105561;1263;63131;-51
2023/05/18 00:34:36;;;;;;;7.20;3.90;;;;;;;9.82;100.00;101267.33;105302;1263;61389;-52
2023/05/18 00:37:03;;;;;;;7.30;3.50;;;;;;;9.79;100.00;101263.02;105600;1256;74118;-54
2023/05/18 00:39:30;;;;;;;6.40;3.80;;;;;;;9.77;100.00;101257.69;105631;1260;66783;-51
2023/05/18 00:41:57;;;;;;;7.00;4.00;;;;;;;9.74;100.00;101253.73;105626;1263;75243;-51
2023/05/18 00:44:24;;;;;;;47.80;5.50;;;;;;;9.71;100.00;101245.98;105613;1263;63425;-50
2023/05/18 00:46:51;;;;;;;7.20;3.60;;;;;;;9.67;100.00;101245.64;105605;1262;61439;-50
2023/05/18 00:49:18;;;;;;;6.50;3.70;;;;;;;9.63;100.00;101242.04;105581;1258;75960;-50
2023/05/18 00:51:46;;;;;;;7.60;3.80;;;;;;;9.58;100.00;101236.52;105476;1257;67387;-50
2023/05/18 00:54:13;;;;;;;11.40;3.60;;;;;;;9.54;100.00;101233.27;105571;1263;75111;-50
2023/05/18 00:56:45;;;;;;;7.80;3.80;;;;;;;9.51;100.00;101227.41;105540;1258;61881;-50
2023/05/18 00:59:12;;;;;;;10.90;3.80;;;;;;;9.46;100.00;101226.91;105582;1258;62447;-52
2023/05/18 01:01:42;;;;;;;10.20;4.00;;;;;;;9.42;100.00;101224.15;105899;1257;74899;-51
2023/05/18 01:04:12;;;;;;;5.40;3.80;;;;;;;9.38;100.00;101225.70;105898;1256;66198;-50
2023/05/18 01:06:41;;;;;;;9.20;3.80;;;;;;;9.34;100.00;101223.98;105905;1257;75179;-52
2023/05/18 01:09:10;;;;;;;6.10;4.50;;;;;;;9.30;100.00;101221.92;105893;1251;62556;-51
2023/05/18 01:11:59;;;;;;;10.00;4.30;;;;;;;9.25;100.00;101225.55;105900;1256;61785;-51
2023/05/18 01:14:48;;;;;;;4.50;3.90;;;;;;;9.22;100.00;101227.09;105690;1259;76037;-50
2023/05/18 01:17:32;;;;;;;9.80;3.90;;;;;;;9.19;100.00;101223.99;105881;1256;66063;-49
2023/05/18 01:20:20;;;;;;;9.30;3.90;;;;;;;9.14;100.00;101225.02;105879;1255;74767;-51
2023/05/18 01:22:49;;;;;;;15.60;5.10;;;;;;;9.07;100.00;101223.64;105888;1255;62809;-51
2023/05/18 01:25:41;;;;;;;5.70;4.00;;;;;;;9.03;100.00;101225.71;105864;1257;62763;-50
2023/05/18 01:28:15;;;;;;;14.00;4.10;;;;;;;9.01;100.00;101226.23;105854;1251;75734;-51
2023/05/18 01:30:42;;;;;;;9.60;3.80;;;;;;;9.00;100.00;101228.66;105705;1259;66903;-51
2023/05/18 01:33:10;;;;;;;12.20;3.70;;;;;;;8.99;100.00;101229.85;105760;1257;75601;-52
2023/05/18 01:35:40;;;;;;;12.10;4.30;;;;;;;8.96;100.00;101228.11;105888;1254;62817;-54
2023/05/18 01:38:07;;;;;;;19.10;4.80;;;;;;;8.95;100.00;101223.11;105658;1252;63045;-54
2023/05/18 01:40:39;;;;;;;5.90;4.30;;;;;;;8.96;100.00;101217.27;105750;1257;76325;-52
2023/05/18 01:43:10;;;;;;;7.90;4.10;;;;;;;8.97;100.00;101215.91;105780;1251;66207;-51
2023/05/18 01:45:39;;;;;;;10.80;4.50;;;;;;;9.00;100.00;101213.68;105930;1257;75138;-57
2023/05/18 01:48:06;;;;;;;8.90;4.50;;;;;;;9.04;100.00;101213.14;105845;1254;62715;-55
2023/05/18 01:50:38;;;;;;;7.10;3.70;;;;;;;9.05;100.00;101214.35;105895;1257;62055;-52
2023/05/18 01:53:13;;;;;;;12.50;4.40;;;;;;;9.00;100.00;101211.95;105686;1259;74496;-52
2023/05/18 01:55:40;;;;;;;6.40;4.30;;;;;;;8.95;100.00;101214.52;105975;1251;67287;-50
2023/05/18 01:58:08;;;;;;;11.00;3.40;;;;;;;8.93;100.00;101215.20;105693;1258;75227;-51
2023/05/18 02:00:35;;;;;;;8.40;3.50;;;;;;;8.91;100.00;101219.67;105661;1256;63511;-51
2023/05/18 02:03:03;;;;;;;4.50;3.90;;;;;;;8.88;100.00;101221.41;105876;1259;60679;-51
2023/05/18 02:05:31;;;;;;;4.40;3.90;;;;;;;8.84;100.00;101222.27;105655;1260;74651;-51
2023/05/18 02:07:58;;;;;;;7.50;3.90;;;;;;;8.81;100.00;101229.14;105741;1259;67526;-50
2023/05/18 02:10:26;;;;;;;7.30;4.50;;;;;;;8.77;100.00;101229.15;105764;1253;75560;-51
2023/05/18 02:12:53;;;;;;;9.60;4.30;;;;;;;8.75;100.00;101226.56;105689;1254;63589;-51
2023/05/18 02:15:21;;;;;;;9.90;4.10;;;;;;;8.75;100.00;101224.15;105845;1260;61883;-50
2023/05/18 02:17:48;;;;;;;5.40;4.60;;;;;;;8.74;100.00;101225.02;105818;1254;76280;-50
2023/05/18 02:20:17;;;;;;;12.30;4.30;;;;;;;8.73;100.00;101230.01;105869;1255;67012;-49
2023/05/18 02:22:45;;;;;;;9.60;4.50;;;;;;;8.73;100.00;101231.02;105909;1257;74443;-50
2023/05/18 02:25:12;;;;;;;12.50;4.60;;;;;;;8.74;100.00;101229.65;105784;1254;64390;-49
2023/05/18 02:27:39;;;;;;;13.70;5.00;;;;;;;8.76;100.00;101229.66;105893;1257;61714;-50
2023/05/18 02:30:07;;;;;;;9.80;4.80;;;;;;;8.79;100.00;101232.23;105694;1254;75242;-50
2023/05/18 02:32:37;;;;;;;10.40;4.20;;;;;;;8.84;100.00;101232.92;105841;1258;67174;-50
2023/05/18 02:35:05;;;;;;;12.30;4.30;;;;;;;8.87;100.00;101228.29;105873;1257;75155;-50
2023/05/18 02:37:38;;;;;;;7.90;4.60;;;;;;;8.89;100.00;101230.02;105819;1257;62882;-49
2023/05/18 02:40:09;;;;;;;8.00;4.10;;;;;;;8.93;100.00;101232.09;105895;1257;63011;-50
2023/05/18 02:42:36;;;;;;;7.40;3.80;;;;;;;8.99;100.00;101231.57;105862;1257;76210;-50
2023/05/18 02:45:04;;;;;;;6.60;4.10;;;;;;;9.03;100.00;101240.35;105680;1260;65088;-50
2023/05/18 02:47:31;;;;;;;8.70;3.80;;;;;;;9.07;100.00;101235.02;105869;1257;73377;-50
2023/05/18 02:49:58;;;;;;;7.40;4.00;;;;;;;9.11;100.00;101236.57;105863;1257;61773;-50
2023/05/18 02:52:26;;;;;;;10.30;4.80;;;;;;;9.17;100.00;101237.59;105841;1257;62256;-50
2023/05/18 02:54:55;;;;;;;5.80;3.90;;;;;;;9.24;100.00;101234.48;105895;1257;74881;-50
2023/05/18 02:57:45;;;;;;;11.50;3.90;;;;;;;9.31;100.00;101234.48;105830;1254;67309;-50
2023/05/18 03:00:16;;;;;;;11.20;4.00;;;;;;;9.38;100.00;101232.77;105857;1254;72958;-50
2023/05/18 03:02:47;;;;;;;6.30;4.00;;;;;;;9.44;100.00;101236.37;105649;1256;63576;-50
2023/05/18 03:05:15;;;;;;;6.50;4.00;;;;;;;9.52;100.00;101235.52;105717;1254;63576;-50
2023/05/18 03:07:49;;;;;;;6.70;3.80;;;;;;;9.59;100.00;101236.35;105892;1257;76559;-50
2023/05/18 03:10:18;;;;;;;8.60;4.40;;;;;;;9.68;100.00;101239.27;105910;1254;66848;-50
2023/05/18 03:12:46;;;;;;;4.60;3.40;;;;;;;9.76;100.00;101236.84;105727;1254;74186;-49
2023/05/18 03:15:15;;;;;;;6.80;3.90;;;;;;;9.86;100.00;101236.29;105698;1260;61707;-50
2023/05/18 03:17:42;;;;;;;6.60;4.10;;;;;;;9.93;100.00;101234.02;105955;1254;63071;-50
2023/05/18 03:20:13;;;;;;;10.00;4.00;;;;;;;10.01;100.00;101239.35;105795;1257;76545;-50
2023/05/18 03:22:40;;;;;;;9.50;3.40;;;;;;;10.10;100.00;101243.95;105848;1258;67261;-50
2023/05/18 03:25:07;;;;;;;9.60;3.70;;;;;;;10.18;100.00;101247.55;105826;1256;73524;-50
2023/05/18 03:27:36;;;;;;;5.40;4.10;;;;;;;10.26;100.00;101254.60;105876;1256;61563;-50
2023/05/18 03:30:04;;;;;;;5.10;3.60;;;;;;;10.35;100.00;101262.16;105620;1260;62126;-49
2023/05/18 03:32:32;;;;;;;11.00;3.60;;;;;;;10.42;100.00;101264.73;105691;1264;75983;-51
2023/05/18 03:35:00;;;;;;;6.90;3.60;;;;;;;10.52;100.00;101267.11;105868;1257;67452;-51
2023/05/18 03:37:28;;;;;;;20.40;3.80;;;;;;;10.63;100.00;101273.95;105821;1257;75363;-51
2023/05/18 03:39:59;;;;;;;7.60;3.70;;;;;;;10.74;100.00;101281.66;105680;1257;62668;-50
2023/05/18 03:42:26;;;;;;;5.20;3.60;;;;;;;10.86;100.00;101289.34;105683;1254;62500;-51
2023/05/18 03:44:55;;;;;;;6.30;3.80;;;;;;;10.99;100.00;101298.92;105924;1258;76529;-51
2023/05/18 03:47:23;;;;;;;13.60;3.90;;;;;;;11.18;100.00;101307.96;105866;1257;67280;-50
2023/05/18 03:49:50;;;;;;;12.90;3.70;;;;;;;11.41;100.00;101313.83;105829;1255;74735;-51
2023/05/18 03:52:21;;;;;;;6.10;3.60;;;;;;;11.72;100.00;101327.90;105868;1254;61876;-51
2023/05/18 03:54:48;;;;;;;6.70;3.70;;;;;;;12.08;100.00;101340.55;105861;1256;61747;-51
2023/05/18 03:57:16;;;;;;;12.00;3.60;;;;;;;12.44;100.00;101357.29;105884;1254;75296;-51
2023/05/18 03:59:44;;;;;;;10.60;3.70;;;;;;;12.81;100.00;101379.02;105706;1252;65647;-51
2023/05/18 04:02:11;;;;;;;9.50;4.10;;;;;;;13.19;100.00;101406.04;105774;1257;75653;-51
2023/05/18 04:04:40;;;;;;;14.00;4.30;;;;;;;13.59;100.00;101433.92;105863;1260;61787;-51
2023/05/18 04:07:08;;;;;;;9.00;3.60;;;;;;;13.97;100.00;101447.38;105739;1259;61539;-51
2023/05/18 04:09:35;;;;;;;9.70;4.40;;;;;;;14.32;100.00;101428.19;105714;1259;76174;-51
2023/05/18 04:12:03;;;;;;;5.00;3.70;;;;;;;14.65;100.00;101351.30;105886;1256;66530;-51
2023/05/18 04:14:33;;;;;;;9.00;3.40;;;;;;;14.95;100.00;101206.78;105844;1257;75648;-51
2023/05/18 04:17:05;;;;;;;8.10;4.10;;;;;;;15.29;100.00;101045.44;105951;1257;62552;-50
2023/05/18 04:19:32;;;;;;;6.90;3.70;;;;;;;15.60;100.00;100868.86;105929;1257;62006;-50
2023/05/18 04:22:03;;;;;;;7.70;3.90;;;;;;;15.85;100.00;100749.73;105683;1253;75148;-51
2023/05/18 04:24:31;;;;;;;5.40;3.80;;;;;;;16.11;100.00;100699.02;105879;1257;67582;-50
2023/05/18 04:27:00;;;;;;;14.20;4.20;;;;;;;16.36;100.00;100709.59;105896;1257;75186;-50
2023/05/18 04:29:28;;;;;;;12.10;4.10;;;;;;;16.59;100.00;100758.84;105904;1257;60869;-50
2023/05/18 04:32:01;;;;;;;11.30;4.50;;;;;;;16.81;100.00;100805.75;105672;1257;62768;-50
2023/05/18 04:34:30;;;;;;;5.70;4.00;;;;;;;17.01;100.00;100864.61;105820;1257;75999;-50
2023/05/18 04:36:57;;;;;;;5.50;4.10;;;;;;;17.20;100.00;100912.54;105728;1254;66043;-50
2023/05/18 04:39:26;;;;;;;11.40;4.20;;;;;;;17.44;100.00;100952.43;105887;1257;75410;-51
2023/05/18 04:41:59;;;;;;;8.00;4.40;;;;;;;17.71;100.00;100969.50;105855;1260;63135;-50
2023/05/18 04:44:27;;;;;;;12.10;4.10;;;;;;;17.85;100.00;100993.58;105860;1254;61200;-51
2023/05/18 04:46:58;;;;;;;11.50;4.70;;;;;;;17.92;100.00;101008.28;105910;1257;75196;-50
2023/05/18 04:49:27;;;;;;;10.20;4.80;;;;;;;18.02;100.00;101017.02;105965;1255;67452;-50
2023/05/18 04:51:55;;;;;;;7.40;4.80;;;;;;;18.19;100.00;101032.05;105871;1257;75434;-51
2023/05/18 04:54:23;;;;;;;6.60;4.30;;;;;;;18.46;97.51;101032.33;105863;1252;61670;-50
2023/05/18 04:56:50;;;;;;;7.30;4.70;;;;;;;18.66;91.52;101039.67;105874;1257;62122;-51
2023/05/18 04:59:17;;;;;;;11.60;4.70;;;;;;;18.91;84.49;101038.63;105933;1257;76116;-50
2023/05/18 05:01:45;;;;;;;14.20;4.60;;;;;;;19.13;75.62;101026.48;105920;1256;66514;-50
2023/05/18 05:04:12;;;;;;;17.80;4.70;;;;;;;19.35;70.88;101024.41;105884;1256;73837;-50
2023/05/18 05:06:40;;;;;;;18.00;5.40;;;;;;;19.56;67.52;101018.19;105849;1257;63477;-50
2023/05/18 05:09:07;;;;;;;12.50;5.10;;;;;;;19.79;66.70;101033.59;105867;1254;62846;-50
2023/05/18 05:11:34;;;;;;;25.20;4.80;;;;;;;20.08;64.98;101019.09;105888;1257;75925;-50
2023/05/18 05:14:01;;;;;;;14.60;4.50;;;;;;;20.30;61.50;100972.09;105860;1256;67662;-50
2023/05/18 05:16:29;;;;;;;10.30;5.20;;;;;;;20.32;60.08;100977.08;105684;1257;74027;-51
2023/05/18 05:18:57;;;;;;;25.40;5.70;;;;;;;20.37;60.21;101007.62;105853;1257;60667;-50
2023/05/18 05:21:24;;;;;;;18.90;5.70;;;;;;;20.61;59.27;100985.73;105793;1259;61617;-50
2023/05/18 05:23:51;;;;;;;14.90;5.40;;;;;;;20.82;57.35;100939.74;105702;1260;75748;-50
2023/05/18 05:26:19;;;;;;;14.70;5.60;;;;;;;20.84;56.20;100913.53;105827;1253;67278;-51
2023/05/18 05:28:46;;;;;;;13.20;5.10;;;;;;;20.92;55.97;100932.22;105713;1257;73386;-51
2023/05/18 05:31:14;;;;;;;12.40;5.40;;;;;;;20.98;55.38;100925.25;105886;1254;62853;-50
2023/05/18 05:33:44;;;;;;;14.90;5.60;;;;;;;21.03;55.27;100938.32;105883;1254;61942;-51
2023/05/18 05:36:12;;;;;;;14.40;5.90;;;;;;;21.17;54.72;100925.41;105889;1257;75043;-50
2023/05/18 05:38:39;;;;;;;14.00;5.30;;;;;;;21.25;54.29;100910.43;105932;1253;66751;-51
2023/05/18 05:41:07;;;;;;;13.90;5.50;;;;;;;21.42;54.16;100912.30;105891;1257;75575;-50
2023/05/18 05:43:34;;;;;;;8.70;4.80;;;;;;;21.58;53.69;100897.65;105860;1254;63110;-51
2023/05/18 05:46:01;;;;;;;8.50;6.00;;;;;;;21.67;53.16;100883.11;105681;1254;60732;-49
2023/05/18 05:48:29;;;;;;;8.30;5.90;;;;;;;21.78;52.28;100844.41;105859;1256;76267;-50
2023/05/18 05:50:56;;;;;;;12.40;5.50;;;;;;;21.91;52.18;100847.52;105839;1260;65668;-50
2023/05/18 05:53:23;;;;;;;16.10;6.00;;;;;;;21.99;51.82;100850.52;105853;1257;75380;-51
2023/05/18 05:55:51;;;;;;;13.60;6.10;;;;;;;22.08;51.22;100819.38;105834;1254;63368;-50
2023/05/18 05:58:19;;;;;;;12.10;6.60;;;;;;;22.15;50.71;100794.76;105711;1260;62312;-50
2023/05/18 06:00:53;;;;;;;11.30;6.40;;;;;;;22.15;50.24;100774.55;105866;1260;76628;-50
2023/05/18 06:03:21;;;;;;;13.20;7.10;;;;;;;22.19;49.83;100755.69;105913;1254;67849;-51
2023/05/18 06:05:48;;;;;;;12.70;6.60;;;;;;;22.21;48.95;100703.70;105859;1256;75393;-52
2023/05/18 06:08:18;;;;;;;11.90;6.50;;;;;;;22.21;48.41;100671.34;105746;1253;62884;-51
2023/05/18 06:10:46;;;;;;;18.00;6.50;;;;;;;22.13;48.61;100710.70;105828;1257;62690;-53
2023/05/18 06:13:14;;;;;;;11.60;6.60;;;;;;;22.13;48.98;100761.30;105778;1257;76602;-51
2023/05/18 06:15:46;;;;;;;20.00;7.20;;;;;;;22.25;49.02;100776.71;105864;1254;66279;-51
2023/05/18 06:18:13;;;;;;;10.80;7.00;;;;;;;22.42;48.34;100713.80;105693;1258;74387;-54
2023/05/18 06:20:41;;;;;;;19.30;6.80;;;;;;;22.51;47.70;100661.20;105848;1257;61762;-54
2023/05/18 06:23:08;;;;;;;22.00;7.80;;;;;;;22.53;47.77;100688.51;105633;1260;62057;-52
2023/05/18 06:25:54;;;;;;;20.00;7.10;;;;;;;22.65;47.39;100665.89;105881;1254;75215;-50
2023/05/18 06:28:30;;;;;;;15.30;7.30;;;;;;;22.64;48.06;100738.09;105886;1253;67464;-50
2023/05/18 06:31:20;;;;;;;15.30;6.90;;;;;;;22.59;48.03;100737.54;105845;1254;75120;-50
2023/05/18 06:33:58;;;;;;;16.30;6.80;;;;;;;22.62;48.27;100787.63;105592;1254;63012;-51
2023/05/18 06:36:25;;;;;;;20.10;7.10;;;;;;;22.72;48.20;100776.64;105765;1255;62678;-51
2023/05/18 06:38:52;;;;;;;12.80;7.20;;;;;;;22.81;48.58;100818.98;105851;1257;75321;-53
2023/05/18 06:41:21;;;;;;;24.20;7.60;;;;;;;22.97;48.49;100814.41;105726;1258;66060;-50
2023/05/18 06:43:49;;;;;;;24.20;8.00;;;;;;;23.14;47.45;100713.20;105892;1254;75527;-50
2023/05/18 06:46:37;;;;;;;23.00;7.20;;;;;;;23.21;48.01;100765.69;105855;1253;62909;-50
2023/05/18 06:49:11;;;;;;;38.80;7.50;;;;;;;23.33;48.13;100789.38;105907;1252;62128;-50
2023/05/18 06:51:38;;;;;;;25.90;8.10;;;;;;;23.47;48.15;100772.94;105914;1257;76684;-50
2023/05/18 06:54:06;;;;;;;11.70;7.20;;;;;;;23.54;47.63;100730.19;105839;1254;65879;-50
2023/05/18 06:56:33;;;;;;;20.00;7.50;;;;;;;23.56;46.65;100656.48;105886;1254;73691;-50
2023/05/18 06:59:00;;;;;;;22.00;7.50;;;;;;;23.62;47.08;100691.85;105676;1258;61760;-51
2023/05/18 07:01:28;;;;;;;22.50;7.80;;;;;;;23.79;47.01;100700.48;105885;1251;62733;-50
2023/05/18 07:03:58;;;;;;;18.60;8.10;;;;;;;24.05;46.40;100617.12;105846;1258;75576;-50
2023/05/18 07:06:25;;;;;;;34.70;8.20;;;;;;;24.20;45.28;100500.41;105909;1257;66674;-50
2023/05/18 07:08:52;;;;;;;30.00;8.40;;;;;;;24.28;44.41;100407.90;105895;1254;75971;-50
2023/05/18 07:11:19;;;;;;;23.20;8.50;;;;;;;24.33;45.37;100535.17;105850;1254;60819;-51
2023/05/18 07:13:46;;;;;;;21.10;8.10;;;;;;;24.38;44.77;100472.41;105913;1257;62802;-51
2023/05/18 07:16:14;;;;;;;20.60;8.50;;;;;;;24.47;44.25;100445.11;105866;1258;76356;-50
2023/05/18 07:18:41;;;;;;;16.20;8.00;;;;;;;24.60;44.34;100443.75;105847;1251;66059;-50
2023/05/18 07:21:08;;;;;;;15.90;8.10;;;;;;;24.71;43.77;100406.93;105883;1257;75391;-50
2023/05/18 07:23:35;;;;;;;17.30;7.70;;;;;;;24.81;43.75;100399.11;105908;1254;62638;-50
2023/05/18 07:26:03;;;;;;;19.80;8.10;;;;;;;25.00;43.90;100426.52;105847;1257;63094;-52
2023/05/18 07:28:30;;;;;;;19.40;8.90;;;;;;;25.26;42.97;100305.46;105749;1257;76341;-50
2023/05/18 07:30:57;;;;;;;21.80;8.40;;;;;;;25.44;41.16;100095.76;105865;1257;67336;-50
2023/05/18 07:33:24;;;;;;;17.60;7.80;;;;;;;25.57;40.76;100018.23;105861;1257;74143;-51
2023/05/18 07:35:51;;;;;;;17.10;8.00;;;;;;;25.59;40.91;100067.85;105880;1251;62933;-50
2023/05/18 07:38:18;;;;;;;16.80;7.40;;;;;;;25.65;40.94;100086.40;105898;1258;62069;-50
2023/05/18 07:40:46;;;;;;;12.90;6.90;;;;;;;25.82;39.18;99888.06;105885;1257;76539;-50
2023/05/18 07:43:13;;;;;;;9.50;6.90;;;;;;;25.96;38.31;99763.13;105903;1251;67034;-49
2023/05/18 07:45:40;;;;;;;10.80;7.50;;;;;;;26.04;36.79;99552.23;105850;1257;74877;-50
2023/05/18 07:48:07;;;;;;;14.30;7.10;;;;;;;26.02;37.29;99606.83;105851;1254;61709;-51
2023/05/18 07:50:34;;;;;;;10.10;7.10;;;;;;;26.11;36.26;99514.04;105856;1251;61787;-50
2023/05/18 07:53:02;;;;;;;11.80;7.60;;;;;;;26.20;36.63;99557.42;105848;1257;75984;-50
2023/05/18 07:55:28;;;;;;;8.40;7.50;;;;;;;26.22;36.35;99551.35;105889;1256;67033;-50
2023/05/18 07:57:59;;;;;;;12.30;7.20;;;;;;;26.20;36.09;99518.29;105869;1254;74330;-50
2023/05/18 08:00:27;;;;;;;12.70;8.10;;;;;;;26.20;35.55;99456.02;105843;1254;62197;-51
2023/05/18 08:02:54;;;;;;;23.50;7.70;;;;;;;26.25;35.22;99424.38;105896;1254;62748;-51
2023/05/18 08:05:22;;;;;;;9.00;7.60;;;;;;;26.34;34.97;99402.20;105870;1255;76253;-51
2023/05/18 08:07:49;;;;;;;10.40;7.30;;;;;;;26.45;35.01;99383.60;105900;1257;65901;-51
2023/05/18 08:10:16;;;;;;;17.30;8.30;;;;;;;26.65;35.72;99488.80;105866;1257;73907;-51
2023/05/18 08:12:43;;;;;;;12.10;8.30;;;;;;;26.78;34.54;99378.68;105567;1256;403196;-51
2023/05/18 08:16:52;;;;;;;12.30;8.30;;;;;;;26.48;34.05;99298.60;102978;1289;600126;-51
2023/05/18 08:19:19;;;;;;;19.30;8.10;;;;;;;26.40;34.77;99364.71;105187;1269;62598;-51
2023/05/18 08:21:47;;;;;;;9.60;8.20;;;;;;;26.58;34.64;99394.84;104931;1269;61726;-51
2023/05/18 08:24:14;;;;;;;13.80;7.80;;;;;;;26.82;34.58;99375.82;104932;1265;73655;-51
2023/05/18 08:26:41;;;;;;;14.70;8.20;;;;;;;26.97;34.29;99328.04;104863;1269;66000;-51
2023/05/18 08:29:09;;;;;;;14.70;8.20;;;;;;;27.12;34.50;99350.20;104878;1270;73503;-51
2023/05/18 08:31:37;;;;;;;9.50;7.30;;;;;;;27.33;34.57;99390.61;105031;1268;224298;-51
2023/05/18 08:34:04;;;;;;;9.30;7.90;;;;;;;27.48;33.97;99285.50;105235;1263;62398;-51
2023/05/18 08:36:33;;;;;;;12.90;8.20;;;;;;;27.50;33.16;99192.05;105218;1266;74966;-51
2023/05/18 08:39:01;;;;;;;10.10;8.40;;;;;;;27.53;32.54;99090.79;105238;1263;66339;-51
2023/05/18 08:41:30;;;;;;;13.80;8.00;;;;;;;27.58;32.28;99026.14;105227;1266;75313;-52
2023/05/18 08:44:13;;;;;;;11.80;8.40;;;;;;;27.66;31.93;99005.23;105158;1267;61838;-50
2023/05/18 08:46:41;;;;;;;10.80;8.70;;;;;;;27.62;32.02;98972.81;105249;1264;62398;-51
2023/05/18 08:49:09;;;;;;;14.90;7.90;;;;;;;27.50;31.66;98928.20;105240;1263;75575;-52
2023/05/18 08:51:36;;;;;;;13.90;8.70;;;;;;;27.09;32.21;99002.86;105210;1261;66968;-51
2023/05/18 08:54:04;;;;;;;75.10;11.30;;;;;;;26.90;32.65;99072.19;105212;1269;74357;-51
2023/05/18 08:56:33;;;;;;;9.40;8.30;;;;;;;26.98;33.14;99144.81;105231;1263;62339;-51
2023/05/18 08:59:03;;;;;;;9.30;8.30;;;;;;;27.01;31.91;99004.51;105198;1266;62225;-51
2023/05/18 09:01:31;;;;;;;14.30;8.80;;;;;;;26.92;32.23;99024.17;105251;1269;74475;-51
2023/05/18 09:03:58;;;;;;;11.20;8.50;;;;;;;26.97;32.15;99021.02;105166;1264;67592;-51
2023/05/18 09:06:28;;;;;;;16.60;8.30;;;;;;;27.01;32.18;99032.28;105505;1260;75770;-51
2023/05/18 09:08:58;;;;;;;16.20;9.10;;;;;;;27.08;32.53;99082.78;105624;1260;62893;-51
2023/05/18 09:11:26;;;;;;;11.50;8.50;;;;;;;27.34;33.24;99166.05;105659;1258;63188;-51
2023/05/18 09:13:54;;;;;;;17.30;8.60;;;;;;;27.70;32.21;99087.12;105615;1263;74385;-52
2023/05/18 09:16:21;;;;;;;13.20;8.40;;;;;;;27.98;31.58;99001.47;105647;1261;67078;-52
2023/05/18 09:18:48;;;;;;;10.20;8.70;;;;;;;28.15;31.53;98966.94;105492;1258;73840;-52
2023/05/18 09:21:15;;;;;;;10.70;9.50;;;;;;;28.21;31.78;98970.66;105582;1262;61492;-52
2023/05/18 09:23:42;;;;;;;13.70;8.90;;;;;;;28.26;30.96;98902.52;105619;1256;63227;-52
2023/05/18 09:26:11;;;;;;;21.40;10.80;;;;;;;28.19;31.38;98923.08;105249;1270;75461;-51
2023/05/18 09:28:42;;;;;;;17.30;9.20;;;;;;;28.04;31.02;98895.84;105475;1261;66791;-52
2023/05/18 09:31:12;;;;;;;10.90;8.50;;;;;;;27.84;31.28;98943.33;105607;1262;74741;-54
2023/05/18 09:33:40;;;;;;;14.60;9.30;;;;;;;27.60;31.37;98946.08;105222;1263;61892;-52
2023/05/18 09:36:08;;;;;;;13.90;8.90;;;;;;;27.47;32.04;99011.64;105268;1267;63838;-51
2023/05/18 09:38:37;;;;;;;11.40;8.90;;;;;;;27.64;31.69;99023.23;105566;1262;74470;-52
2023/05/18 09:41:08;;;;;;;20.20;9.20;;;;;;;27.86;32.08;99046.75;105580;1261;66926;-52
2023/05/18 09:43:36;;;;;;;15.60;8.50;;;;;;;28.22;31.18;98928.77;105520;1261;74553;-51
2023/05/18 09:46:06;;;;;;;12.70;8.50;;;;;;;28.35;31.18;98925.45;105527;1262;62317;-51
2023/05/18 09:48:35;;;;;;;9.00;8.10;;;;;;;28.20;30.60;98856.44;105587;1261;62898;-52
2023/05/18 09:51:06;;;;;;;19.70;9.40;;;;;;;27.92;30.87;98893.70;105520;1256;75762;-51
2023/05/18 09:53:37;;;;;;;13.90;8.70;;;;;;;27.57;31.56;98972.92;105574;1263;67301;-52
2023/05/18 09:56:10;;;;;;;15.70;9.50;;;;;;;27.24;32.66;99072.81;105616;1262;75356;-50
2023/05/18 09:58:38;;;;;;;13.30;9.40;;;;;;;27.00;33.06;99174.96;105611;1258;61893;-51
2023/05/18 10:01:05;;;;;;;15.60;8.90;;;;;;;26.93;33.19;99200.66;105479;1263;61559;-51
2023/05/18 10:03:36;;;;;;;11.10;8.80;;;;;;;27.14;33.46;99253.39;105534;1261;74620;-51
2023/05/18 10:06:05;;;;;;;18.10;8.40;;;;;;;27.68;31.94;99094.13;105569;1262;66039;-51
2023/05/18 10:08:33;;;;;;;11.90;9.00;;;;;;;28.07;30.75;98958.27;105619;1257;75077;-52
2023/05/18 10:11:00;;;;;;;9.20;7.90;;;;;;;27.99;29.77;98798.41;105473;1257;63142;-52
2023/05/18 10:13:30;;;;;;;15.90;8.70;;;;;;;27.82;30.79;98890.45;105518;1263;62291;-51
2023/05/18 10:16:04;;;;;;;16.20;9.40;;;;;;;27.62;31.53;98999.74;105460;1264;74876;-51
2023/05/18 10:18:34;;;;;;;17.20;8.90;;;;;;;27.45;31.72;99029.89;105489;1262;67049;-52
2023/05/18 10:21:03;;;;;;;10.00;8.70;;;;;;;27.23;32.04;99066.67;105545;1262;74158;-52
2023/05/18 10:23:31;;;;;;;15.80;8.50;;;;;;;27.13;32.18;99084.35;105544;1258;62664;-50
2023/05/18 10:25:58;;;;;;;11.60;8.70;;;;;;;27.28;31.68;99064.04;105499;1263;62839;-52
2023/05/18 10:28:46;;;;;;;9.10;8.20;;;;;;;27.32;31.14;98970.24;105520;1257;74416;-53
2023/05/18 10:31:14;;;;;;;17.60;8.50;;;;;;;27.12;31.18;98968.77;105469;1260;65949;-52
2023/05/18 10:33:41;;;;;;;9.60;8.70;;;;;;;26.84;31.69;99004.33;105345;1258;75020;-51
2023/05/18 10:36:09;;;;;;;11.20;8.90;;;;;;;26.59;31.98;99059.17;105428;1263;63184;-52
2023/05/18 10:38:42;;;;;;;11.60;8.70;;;;;;;26.41;32.40;99112.62;105480;1258;61463;-58
2023/05/18 10:41:09;;;;;;;11.90;8.90;;;;;;;26.30;32.77;99153.14;105477;1263;75631;-54
2023/05/18 10:43:36;;;;;;;17.10;8.20;;;;;;;26.21;32.29;99121.57;105455;1264;67009;-52
2023/05/18 10:46:04;;;;;;;10.00;8.60;;;;;;;25.97;32.59;99155.67;105488;1263;75243;-52
2023/05/18 10:48:31;;;;;;;12.80;9.20;;;;;;;25.77;32.59;99173.27;105477;1262;62017;-50
2023/05/18 10:50:58;;;;;;;13.10;9.30;;;;;;;25.58;33.14;99239.51;105268;1265;62413;-50
2023/05/18 10:53:28;;;;;;;19.60;9.70;;;;;;;25.49;33.82;99306.90;105481;1262;75470;-51
2023/05/18 10:55:55;;;;;;;183.20;17.00;;;;;;;25.46;33.90;99337.73;105566;1263;66587;-51
2023/05/18 10:58:24;;;;;;;15.00;8.80;;;;;;;25.47;34.05;99363.30;105558;1261;75063;-51
2023/05/18 11:01:00;;;;;;;13.00;9.30;;;;;;;25.47;33.86;99356.23;105550;1263;61783;-51
2023/05/18 11:03:27;;;;;;;12.10;9.30;;;;;;;25.49;34.13;99394.36;105572;1261;61721;-52
2023/05/18 11:06:05;;;;;;;15.40;9.00;;;;;;;25.54;34.19;99401.83;105593;1261;74847;-51
2023/05/18 11:08:33;;;;;;;11.10;8.80;;;;;;;25.64;34.15;99413.53;105572;1261;66771;-50
2023/05/18 11:11:01;;;;;;;14.60;9.00;;;;;;;25.71;33.88;99380.02;105521;1260;75334;-51
2023/05/18 11:13:30;;;;;;;14.10;9.60;;;;;;;25.79;33.01;99289.43;105573;1263;63080;-50
2023/05/18 11:15:58;;;;;;;272.40;22.30;;;;;;;25.90;33.25;99314.71;105569;1256;63303;-52
2023/05/18 11:18:44;;;;;;;23.20;8.90;;;;;;;26.15;33.11;99303.91;105621;1263;74506;-52
2023/05/18 11:21:24;;;;;;;12.30;8.80;;;;;;;26.73;33.50;99329.51;105536;1255;66513;-52